Details From KPWT - Bremerton National
To KWYS - Yellowstone
Flight Number -
Tags Generated
Created
Modified
Stats Distance 513 nm / 950 km
Max Altitude 0 ft / 0 m
Waypoints 4
Social Downloads 0
Likes 0
Share VATSIM

Download

Looking for another format? Having issues loading an existing format? Contact us
Advertisement - Login to hide

Notes

Generated

Route

KPWT KEYSU R1610 KWYS

ID Type Via Altitude Latitude Longitude Leg Dist Tot Dist Heading (true) Name
O KPWT APT - 0 ft / 0 m 47.48333˚ -122.77138˚ - 0 nm - -
KEYSU FIX - 0 ft / 0 m 46.22164˚ -116.80203˚ 256 nm 256 nm 105° / 109° -
R1610 FIX - 0 ft / 0 m 44.67807˚ -111.12478˚ 256 nm 512 nm 109° / 113° -
O KWYS APT - 0 ft / 0 m 44.67807˚ -111.12478˚ 0 nm 512 nm 0° / 180° -

Altitude Profile

Advertisement - Login to hide

Weather


0- 5 10 15 20 25 30 35+ Temperature / ° C

Clouds and Precipitation
Forecast for 2017-12-13 06:00 UTC. Updated 31 minutes ago

Ground ~20,000 ft ~40,000 ft Winds

KPWT

Details ICAO KPWT (PWT)
Name Bremerton National
Region United States
Timezone America/Los_Angeles (UTC-8.0)
Stats Elevation 444 ft / 135 m (AMSL)
Location 47.490240° -122.764815°
Runways 1
Magnetic Variation 15.776° E

METAR

KPWT 130456Z AUTO 03004KT 10SM CLR 05/02 A3039 RMK AO2 SLP312 T00500022

Decode

TAF

TAF KPWT 122320Z 1300/1324 00000KT P6SM SKC FM130300 03004KT P6SM SCT250 FM131200 03004KT 1/2SM FG VV001 FM132100 02005KT 5SM BR SCT002 FM132300 02005KT P6SM SKC

Decode

Departure Runways

ID Width Length Bearing (true) Bearing (mag) Surface Threshold Offset Overrun Length
01 151 ft / 46 m 5,997 ft / 1,828 m 32.69° 16.91° Asphalt 0 ft / 0 m 0 ft / 0 m
19 151 ft / 46 m 5,997 ft / 1,828 m 212.70° 196.92° Asphalt 0 ft / 0 m 1,243 ft / 379 m

KWYS

Details ICAO KWYS (WYS)
Name Yellowstone
Region United States
Timezone America/Denver (UTC-7.0)
Stats Elevation 6,644 ft / 2,025 m (AMSL)
Location 44.688398° -111.117638°
Runways 1
Magnetic Variation 11.725° E

METAR

KWYS 130535Z AUTO 00000KT 10SM FEW055 OVC100 M06/M11 A3034 RMK AO2

Decode

TAF

Not found

Destination Runways

ID Width Length Bearing (true) Bearing (mag) Surface Threshold Offset Overrun Length
01 150 ft / 46 m 8,399 ft / 2,560 m 26.19° 14.47° Asphalt 0 ft / 0 m 0 ft / 0 m
19 150 ft / 46 m 8,399 ft / 2,560 m 206.20° 194.48° Asphalt 0 ft / 0 m 0 ft / 0 m

Approach Navaids

Runway Type Ident Frequency Range Bearing (true) Bearing (mag) Slope Elevation
01 Localiser ILOW 110.70 MHz 18 nm / 33 km 26.20° 14.48° - 6,642 ft / 2,024 m (AMSL)
01 Glidescope ILOW 110.70 MHz 10 nm / 19 km 26.19° 14.47° 3.00° 6,642 ft / 2,024 m (AMSL)